sensor_id;sensor_type;location;lat;lon;timestamp;pressure;altitude;pressure_sealevel;temperature;humidity
27144;BME280;14672;50.250;8.312;2023-02-23T00:01:42;98435.19;;;12.63;66.20
27144;BME280;14672;50.250;8.312;2023-02-23T00:04:08;98443.13;;;12.59;66.01
27144;BME280;14672;50.250;8.312;2023-02-23T00:06:35;98444.84;;;12.65;66.14
27144;BME280;14672;50.250;8.312;2023-02-23T00:09:02;98451.31;;;12.66;66.66
27144;BME280;14672;50.250;8.312;2023-02-23T00:11:32;98439.75;;;12.69;65.80
27144;BME280;14672;50.250;8.312;2023-02-23T00:13:58;98440.41;;;12.64;66.53
27144;BME280;14672;50.250;8.312;2023-02-23T00:16:25;98441.22;;;12.65;66.06
27144;BME280;14672;50.250;8.312;2023-02-23T00:18:56;98433.59;;;12.62;66.35
27144;BME280;14672;50.250;8.312;2023-02-23T00:21:29;98440.88;;;12.63;66.51
27144;BME280;14672;50.250;8.312;2023-02-23T00:24:09;98437.06;;;12.66;66.66
27144;BME280;14672;50.250;8.312;2023-02-23T00:26:38;98435.50;;;12.65;66.34
27144;BME280;14672;50.250;8.312;2023-02-23T00:29:07;98436.78;;;12.64;66.52
27144;BME280;14672;50.250;8.312;2023-02-23T00:31:34;98437.56;;;12.64;66.44
27144;BME280;14672;50.250;8.312;2023-02-23T00:34:02;98434.53;;;12.68;66.36
27144;BME280;14672;50.250;8.312;2023-02-23T00:36:31;98434.41;;;12.62;66.59
27144;BME280;14672;50.250;8.312;2023-02-23T00:39:05;98436.44;;;12.62;66.52
27144;BME280;14672;50.250;8.312;2023-02-23T00:41:45;98433.78;;;12.58;67.10
27144;BME280;14672;50.250;8.312;2023-02-23T00:44:11;98434.41;;;12.62;66.42
27144;BME280;14672;50.250;8.312;2023-02-23T00:46:40;98426.34;;;12.61;66.59
27144;BME280;14672;50.250;8.312;2023-02-23T00:49:12;98438.72;;;12.58;66.76
27144;BME280;14672;50.250;8.312;2023-02-23T00:51:38;98435.06;;;12.57;66.58
27144;BME280;14672;50.250;8.312;2023-02-23T00:54:05;98446.28;;;12.61;66.77
27144;BME280;14672;50.250;8.312;2023-02-23T00:56:31;98436.94;;;12.60;66.62
27144;BME280;14672;50.250;8.312;2023-02-23T00:58:57;98436.16;;;12.60;66.41
27144;BME280;14672;50.250;8.312;2023-02-23T01:01:23;98434.56;;;12.59;66.80
27144;BME280;14672;50.250;8.312;2023-02-23T01:03:49;98434.72;;;12.64;66.47
27144;BME280;14672;50.250;8.312;2023-02-23T01:06:18;98436.78;;;12.64;66.65
27144;BME280;14672;50.250;8.312;2023-02-23T01:08:47;98440.59;;;12.61;66.95
27144;BME280;14672;50.250;8.312;2023-02-23T01:11:20;98435.56;;;12.56;67.15
27144;BME280;14672;50.250;8.312;2023-02-23T01:13:50;98435.56;;;12.56;66.66
27144;BME280;14672;50.250;8.312;2023-02-23T01:16:21;98431.44;;;12.57;66.79
27144;BME280;14672;50.250;8.312;2023-02-23T01:18:48;98438.72;;;12.58;66.76
27144;BME280;14672;50.250;8.312;2023-02-23T01:21:30;98436.44;;;12.62;67.42
27144;BME280;14672;50.250;8.312;2023-02-23T01:23:57;98435.19;;;12.63;66.96
27144;BME280;14672;50.250;8.312;2023-02-23T01:26:33;98437.06;;;12.66;67.06
27144;BME280;14672;50.250;8.312;2023-02-23T01:29:04;98435.00;;;12.66;67.14
27144;BME280;14672;50.250;8.312;2023-02-23T01:31:30;98444.06;;;12.65;66.95
27144;BME280;14672;50.250;8.312;2023-02-23T01:33:59;98441.84;;;12.60;67.44
27144;BME280;14672;50.250;8.312;2023-02-23T01:36:26;98440.09;;;12.62;67.53
27144;BME280;14672;50.250;8.312;2023-02-23T01:38:56;98439.31;;;12.62;67.66
27144;BME280;14672;50.250;8.312;2023-02-23T01:41:26;98441.22;;;12.65;67.61
27144;BME280;14672;50.250;8.312;2023-02-23T01:46:25;98442.94;;;12.62;68.07
27144;BME280;14672;50.250;8.312;2023-02-23T01:48:52;98438.03;;;12.63;68.24
27144;BME280;14672;50.250;8.312;2023-02-23T01:51:24;98441.81;;;12.69;68.13
27144;BME280;14672;50.250;8.312;2023-02-23T01:54:02;98439.91;;;12.66;68.63
27144;BME280;14672;50.250;8.312;2023-02-23T01:56:35;98435.19;;;12.63;68.80
27144;BME280;14672;50.250;8.312;2023-02-23T01:59:05;98426.53;;;12.57;69.41
27144;BME280;14672;50.250;8.312;2023-02-23T02:01:32;98427.13;;;12.61;68.88
27144;BME280;14672;50.250;8.312;2023-02-23T02:04:02;98430.47;;;12.60;68.92
27144;BME280;14672;50.250;8.312;2023-02-23T02:06:33;98428.59;;;12.57;69.25
27144;BME280;14672;50.250;8.312;2023-02-23T02:09:07;98427.00;;;12.56;69.68
27144;BME280;14672;50.250;8.312;2023-02-23T02:11:35;98429.84;;;12.56;69.54
27144;BME280;14672;50.250;8.312;2023-02-23T02:14:28;98430.16;;;12.58;69.36
27144;BME280;14672;50.250;8.312;2023-02-23T02:23:31;98420.41;;;12.50;69.68
27144;BME280;14672;50.250;8.312;2023-02-23T02:30:02;98409.94;;;12.47;69.96
27144;BME280;14672;50.250;8.312;2023-02-23T02:36:05;98412.69;;;12.41;69.87
27144;BME280;14672;50.250;8.312;2023-02-23T02:42:28;98409.69;;;12.36;70.19
27144;BME280;14672;50.250;8.312;2023-02-23T02:45:27;98407.16;;;12.38;69.66
27144;BME280;14672;50.250;8.312;2023-02-23T02:56:17;98397.88;;;12.28;70.03
27144;BME280;14672;50.250;8.312;2023-02-23T02:58:45;98397.88;;;12.28;69.92
27144;BME280;14672;50.250;8.312;2023-02-23T03:01:16;98397.56;;;12.26;69.66
27144;BME280;14672;50.250;8.312;2023-02-23T03:04:21;98400.88;;;12.24;70.28
27144;BME280;14672;50.250;8.312;2023-02-23T03:07:20;98387.44;;;12.25;70.01
27144;BME280;14672;50.250;8.312;2023-02-23T03:16:41;98396.63;;;12.20;69.82
27144;BME280;14672;50.250;8.312;2023-02-23T03:19:30;98397.09;;;12.18;70.09
27144;BME280;14672;50.250;8.312;2023-02-23T03:22:34;98399.94;;;12.18;70.19
27144;BME280;14672;50.250;8.312;2023-02-23T03:26:13;98403.31;;;12.17;70.35
27144;BME280;14672;50.250;8.312;2023-02-23T03:29:19;98399.66;;;12.16;70.42
27144;BME280;14672;50.250;8.312;2023-02-23T03:32:32;98405.81;;;12.15;70.36
27144;BME280;14672;50.250;8.312;2023-02-23T03:38:35;98402.38;;;12.11;70.82
27144;BME280;14672;50.250;8.312;2023-02-23T03:41:23;98396.03;;;12.16;70.36
27144;BME280;14672;50.250;8.312;2023-02-23T03:44:17;98400.91;;;12.15;70.17
27144;BME280;14672;50.250;8.312;2023-02-23T03:47:05;98409.97;;;12.14;70.48
27144;BME280;14672;50.250;8.312;2023-02-23T03:49:54;98414.97;;;12.19;70.43
27144;BME280;14672;50.250;8.312;2023-02-23T03:52:46;98401.91;;;12.12;70.53
27144;BME280;14672;50.250;8.312;2023-02-23T03:55:35;98406.97;;;12.08;70.67
27144;BME280;14672;50.250;8.312;2023-02-23T03:58:31;98402.88;;;12.09;70.66
27144;BME280;14672;50.250;8.312;2023-02-23T04:01:19;98400.00;;;12.09;70.88
27144;BME280;14672;50.250;8.312;2023-02-23T04:04:07;98399.84;;;12.13;70.47
27144;BME280;14672;50.250;8.312;2023-02-23T04:06:56;98406.31;;;12.13;70.61
27144;BME280;14672;50.250;8.312;2023-02-23T04:09:41;98402.19;;;12.14;70.80
27144;BME280;14672;50.250;8.312;2023-02-23T04:12:33;98407.59;;;12.12;71.06
27144;BME280;14672;50.250;8.312;2023-02-23T04:16:05;98409.78;;;12.17;71.12
27144;BME280;14672;50.250;8.312;2023-02-23T04:18:29;98413.75;;;12.11;71.29
27144;BME280;14672;50.250;8.312;2023-02-23T04:20:56;98411.69;;;12.11;71.09
27144;BME280;14672;50.250;8.312;2023-02-23T04:23:23;98413.75;;;12.11;70.97
27144;BME280;14672;50.250;8.312;2023-02-23T04:25:51;98416.41;;;12.14;71.19
27144;BME280;14672;50.250;8.312;2023-02-23T04:28:18;98412.31;;;12.15;71.09
27144;BME280;14672;50.250;8.312;2023-02-23T04:30:44;98420.84;;;12.15;70.82
27144;BME280;14672;50.250;8.312;2023-02-23T04:33:10;98415.66;;;12.14;70.76
27144;BME280;14672;50.250;8.312;2023-02-23T04:35:36;98416.75;;;12.16;71.21
27144;BME280;14672;50.250;8.312;2023-02-23T04:38:02;98421.66;;;12.16;71.03
27144;BME280;14672;50.250;8.312;2023-02-23T04:40:29;98419.88;;;12.18;71.21
27144;BME280;14672;50.250;8.312;2023-02-23T04:42:55;98422.44;;;12.16;71.11
27144;BME280;14672;50.250;8.312;2023-02-23T04:45:22;98421.47;;;12.19;71.17
27144;BME280;14672;50.250;8.312;2023-02-23T04:47:49;98417.03;;;12.18;71.26
27144;BME280;14672;50.250;8.312;2023-02-23T04:50:16;98415.59;;;12.23;71.24
27144;BME280;14672;50.250;8.312;2023-02-23T04:52:42;98417.97;;;12.24;71.25
27144;BME280;14672;50.250;8.312;2023-02-23T04:55:17;98424.16;;;12.23;71.69
27144;BME280;14672;50.250;8.312;2023-02-23T04:57:43;98421.63;;;12.25;71.46
27144;BME280;14672;50.250;8.312;2023-02-23T05:00:10;98422.41;;;12.26;71.27
27144;BME280;14672;50.250;8.312;2023-02-23T05:02:35;98417.34;;;12.30;71.59
27144;BME280;14672;50.250;8.312;2023-02-23T05:05:01;98423.31;;;12.32;71.23
27144;BME280;14672;50.250;8.312;2023-02-23T05:07:27;98422.88;;;12.24;71.18
27144;BME280;14672;50.250;8.312;2023-02-23T05:09:53;98422.88;;;12.24;71.41
27144;BME280;14672;50.250;8.312;2023-02-23T05:12:19;98421.44;;;12.29;71.63
27144;BME280;14672;50.250;8.312;2023-02-23T05:14:45;98415.91;;;12.25;71.20
27144;BME280;14672;50.250;8.312;2023-02-23T05:17:11;98417.81;;;12.28;71.44
27144;BME280;14672;50.250;8.312;2023-02-23T05:19:37;98421.91;;;12.27;71.71
27144;BME280;14672;50.250;8.312;2023-02-23T05:22:03;98417.97;;;12.24;71.57
27144;BME280;14672;50.250;8.312;2023-02-23T05:24:29;98419.06;;;12.27;71.86
27144;BME280;14672;50.250;8.312;2023-02-23T05:26:55;98417.00;;;12.28;71.72
27144;BME280;14672;50.250;8.312;2023-02-23T05:29:20;98415.75;;;12.29;71.44
27144;BME280;14672;50.250;8.312;2023-02-23T05:31:46;98423.19;;;12.26;71.64
27144;BME280;14672;50.250;8.312;2023-02-23T05:34:13;98421.63;;;12.25;71.90
27144;BME280;14672;50.250;8.312;2023-02-23T05:36:42;98427.50;;;12.21;72.00
27144;BME280;14672;50.250;8.312;2023-02-23T05:39:08;98420.34;;;12.26;72.05
27144;BME280;14672;50.250;8.312;2023-02-23T05:45:14;98418.28;;;12.27;71.59
27144;BME280;14672;50.250;8.312;2023-02-23T05:47:40;98416.53;;;12.29;71.45
27144;BME280;14672;50.250;8.312;2023-02-23T05:50:08;98417.81;;;12.28;71.54
27144;BME280;14672;50.250;8.312;2023-02-23T05:52:39;98425.25;;;12.26;71.76
27144;BME280;14672;50.250;8.312;2023-02-23T05:55:08;98429.66;;;12.27;71.75
27144;BME280;14672;50.250;8.312;2023-02-23T05:57:35;98419.06;;;12.27;71.48
27144;BME280;14672;50.250;8.312;2023-02-23T06:00:01;98423.97;;;12.27;71.40
27144;BME280;14672;50.250;8.312;2023-02-23T06:02:27;98424.47;;;12.25;71.80
27144;BME280;14672;50.250;8.312;2023-02-23T06:04:52;98421.28;;;12.23;71.65
27144;BME280;14672;50.250;8.312;2023-02-23T06:07:18;98433.81;;;12.26;71.21
27144;BME280;14672;50.250;8.312;2023-02-23T06:09:44;98426.19;;;12.22;71.60
27144;BME280;14672;50.250;8.312;2023-02-23T06:12:10;98428.56;;;12.24;71.08
27144;BME280;14672;50.250;8.312;2023-02-23T06:14:35;98426.69;;;12.21;71.47
27144;BME280;14672;50.250;8.312;2023-02-23T06:17:01;98435.06;;;12.24;71.36
27144;BME280;14672;50.250;8.312;2023-02-23T06:19:27;98429.03;;;12.22;71.74
27144;BME280;14672;50.250;8.312;2023-02-23T06:21:52;98426.53;;;12.24;71.17
27144;BME280;14672;50.250;8.312;2023-02-23T06:24:18;98434.28;;;12.24;71.42
27144;BME280;14672;50.250;8.312;2023-02-23T06:26:45;98429.84;;;12.23;71.41
27144;BME280;14672;50.250;8.312;2023-02-23T06:29:11;98442.34;;;12.26;71.16
27144;BME280;14672;50.250;8.312;2023-02-23T06:31:37;98441.56;;;12.25;71.26
27144;BME280;14672;50.250;8.312;2023-02-23T06:34:04;98443.28;;;12.22;71.47
27144;BME280;14672;50.250;8.312;2023-02-23T06:36:30;98443.63;;;12.24;71.56
27144;BME280;14672;50.250;8.312;2023-02-23T06:38:57;98444.56;;;12.21;72.05
27144;BME280;14672;50.250;8.312;2023-02-23T06:41:23;98449.31;;;12.24;71.76
27144;BME280;14672;50.250;8.312;2023-02-23T06:43:49;98453.25;;;12.27;71.70
27144;BME280;14672;50.250;8.312;2023-02-23T06:46:17;98449.44;;;12.30;71.73
27144;BME280;14672;50.250;8.312;2023-02-23T06:48:44;98454.81;;;12.28;71.99
27144;BME280;14672;50.250;8.312;2023-02-23T06:51:10;98450.22;;;12.31;71.76
27144;BME280;14672;50.250;8.312;2023-02-23T06:53:36;98454.81;;;12.28;71.74
27144;BME280;14672;50.250;8.312;2023-02-23T06:56:03;98458.75;;;12.31;72.14
27144;BME280;14672;50.250;8.312;2023-02-23T06:58:29;98462.72;;;12.33;71.99
27144;BME280;14672;50.250;8.312;2023-02-23T07:00:56;98465.06;;;12.35;72.29
27144;BME280;14672;50.250;8.312;2023-02-23T07:03:23;98466.66;;;12.36;72.64
27144;BME280;14672;50.250;8.312;2023-02-23T07:05:49;98469.84;;;12.38;72.24
27144;BME280;14672;50.250;8.312;2023-02-23T07:08:16;98467.28;;;12.40;72.37
27144;BME280;14672;50.250;8.312;2023-02-23T07:10:43;98477.72;;;12.43;72.21
27144;BME280;14672;50.250;8.312;2023-02-23T07:13:10;98469.31;;;12.48;72.26
27144;BME280;14672;50.250;8.312;2023-02-23T07:15:38;98479.13;;;12.47;72.33
27144;BME280;14672;50.250;8.312;2023-02-23T07:18:04;98474.69;;;12.46;72.43
27144;BME280;14672;50.250;8.312;2023-02-23T07:20:31;98482.47;;;12.46;72.54
27144;BME280;14672;50.250;8.312;2023-02-23T07:22:58;98483.09;;;12.50;72.20
27144;BME280;14672;50.250;8.312;2023-02-23T07:25:29;98478.00;;;12.54;72.50
27144;BME280;14672;50.250;8.312;2023-02-23T07:27:55;98478.47;;;12.52;73.07
27144;BME280;14672;50.250;8.312;2023-02-23T07:30:23;98484.63;;;12.51;72.83
27144;BME280;14672;50.250;8.312;2023-02-23T07:32:51;98485.56;;;12.57;73.06
27144;BME280;14672;50.250;8.312;2023-02-23T07:35:17;98476.06;;;12.60;72.95
27144;BME280;14672;50.250;8.312;2023-02-23T07:37:43;98480.50;;;12.61;72.94
27144;BME280;14672;50.250;8.312;2023-02-23T07:40:10;98489.16;;;12.66;72.68
27144;BME280;14672;50.250;8.312;2023-02-23T07:42:36;98496.25;;;12.71;72.66
27144;BME280;14672;50.250;8.312;2023-02-23T07:45:03;98494.19;;;12.71;72.86
27144;BME280;14672;50.250;8.312;2023-02-23T07:47:29;98490.56;;;12.71;72.94
27144;BME280;14672;50.250;8.312;2023-02-23T07:49:57;98496.09;;;12.75;72.71
27144;BME280;14672;50.250;8.312;2023-02-23T07:52:23;98495.91;;;12.78;72.96
27144;BME280;14672;50.250;8.312;2023-02-23T07:54:49;98497.19;;;12.77;73.35
27144;BME280;14672;50.250;8.312;2023-02-23T07:57:15;98496.22;;;12.80;73.46
27144;BME280;14672;50.250;8.312;2023-02-23T07:59:41;98503.16;;;12.88;73.51
27144;BME280;14672;50.250;8.312;2023-02-23T08:02:09;98507.88;;;12.91;73.63
27144;BME280;14672;50.250;8.312;2023-02-23T08:04:35;98505.34;;;12.93;73.12
27144;BME280;14672;50.250;8.312;2023-02-23T08:07:01;98497.88;;;12.96;73.44
27144;BME280;14672;50.250;8.312;2023-02-23T08:09:27;98505.34;;;12.93;73.55
27144;BME280;14672;50.250;8.312;2023-02-23T08:11:54;98507.22;;;12.96;73.48
27144;BME280;14672;50.250;8.312;2023-02-23T08:14:20;98507.84;;;13.00;73.51
27144;BME280;14672;50.250;8.312;2023-02-23T08:16:48;98511.75;;;13.03;73.60
27144;BME280;14672;50.250;8.312;2023-02-23T08:19:14;98508.91;;;13.03;73.39
27144;BME280;14672;50.250;8.312;2023-02-23T08:21:40;98506.84;;;13.03;73.48
27144;BME280;14672;50.250;8.312;2023-02-23T08:24:08;98510.31;;;13.07;73.47
27144;BME280;14672;50.250;8.312;2023-02-23T08:26:35;98509.72;;;13.03;73.47
27144;BME280;14672;50.250;8.312;2023-02-23T08:29:03;98514.94;;;13.05;73.92
27144;BME280;14672;50.250;8.312;2023-02-23T08:31:29;98514.44;;;13.06;73.57
27144;BME280;14672;50.250;8.312;2023-02-23T08:33:55;98509.38;;;13.10;73.82
27144;BME280;14672;50.250;8.312;2023-02-23T08:36:21;98510.97;;;13.11;73.41
27144;BME280;14672;50.250;8.312;2023-02-23T08:38:47;98515.88;;;13.11;73.39
27144;BME280;14672;50.250;8.312;2023-02-23T08:41:13;98511.28;;;13.13;73.75
27144;BME280;14672;50.250;8.312;2023-02-23T08:43:39;98514.41;;;13.15;73.00
27144;BME280;14672;50.250;8.312;2023-02-23T08:46:06;98517.88;;;13.20;73.01
27144;BME280;14672;50.250;8.312;2023-02-23T08:48:32;98519.16;;;13.18;72.71
27144;BME280;14672;50.250;8.312;2023-02-23T08:51:00;98512.16;;;13.20;72.63
27144;BME280;14672;50.250;8.312;2023-02-23T08:53:26;98520.06;;;13.25;72.85
27144;BME280;14672;50.250;8.312;2023-02-23T08:55:59;98522.41;;;13.26;73.08
27144;BME280;14672;50.250;8.312;2023-02-23T08:58:27;98524.50;;;13.26;73.25
27144;BME280;14672;50.250;8.312;2023-02-23T09:00:53;98522.22;;;13.30;73.15
27144;BME280;14672;50.250;8.312;2023-02-23T09:03:22;98527.47;;;13.31;73.05
27144;BME280;14672;50.250;8.312;2023-02-23T09:05:48;98525.88;;;13.30;73.06
27144;BME280;14672;50.250;8.312;2023-02-23T09:08:14;98529.53;;;13.31;73.22
27144;BME280;14672;50.250;8.312;2023-02-23T09:10:41;98532.19;;;13.34;73.22
27144;BME280;14672;50.250;8.312;2023-02-23T09:13:10;98529.34;;;13.34;73.66
27144;BME280;14672;50.250;8.312;2023-02-23T09:15:38;98531.53;;;13.39;72.82
27144;BME280;14672;50.250;8.312;2023-02-23T09:18:05;98537.22;;;13.39;73.02
27144;BME280;14672;50.250;8.312;2023-02-23T09:20:32;98534.19;;;13.43;72.99
27144;BME280;14672;50.250;8.312;2023-02-23T09:22:58;98533.22;;;13.46;72.99
27144;BME280;14672;50.250;8.312;2023-02-23T09:25:25;98535.13;;;13.49;73.34
27144;BME280;14672;50.250;8.312;2023-02-23T09:27:53;98538.25;;;13.51;73.85
27144;BME280;14672;50.250;8.312;2023-02-23T09:30:22;98534.06;;;13.61;73.42
27144;BME280;14672;50.250;8.312;2023-02-23T09:32:53;98542.88;;;13.72;73.20
27144;BME280;14672;50.250;8.312;2023-02-23T09:35:21;98538.34;;;13.80;72.72
27144;BME280;14672;50.250;8.312;2023-02-23T09:37:52;98539.16;;;13.81;72.82
27144;BME280;14672;50.250;8.312;2023-02-23T09:40:26;98546.84;;;13.89;72.93
27144;BME280;14672;50.250;8.312;2023-02-23T09:43:15;98542.63;;;13.99;72.23
27144;BME280;14672;50.250;8.312;2023-02-23T09:46:13;98547.66;;;14.04;72.15
27144;BME280;14672;50.250;8.312;2023-02-23T09:48:46;98544.00;;;14.19;71.56
27144;BME280;14672;50.250;8.312;2023-02-23T09:51:18;98547.25;;;14.26;71.00
27144;BME280;14672;50.250;8.312;2023-02-23T09:54:08;98543.56;;;14.35;70.35
27144;BME280;14672;50.250;8.312;2023-02-23T09:56:38;98542.88;;;14.40;70.51
27144;BME280;14672;50.250;8.312;2023-02-23T09:59:13;98548.88;;;14.42;70.67
27144;BME280;14672;50.250;8.312;2023-02-23T10:07:45;98546.09;;;14.62;70.04
27144;BME280;14672;50.250;8.312;2023-02-23T10:10:46;98546.78;;;14.57;70.88
27144;BME280;14672;50.250;8.312;2023-02-23T10:21:40;98550.06;;;14.65;68.78
27144;BME280;14672;50.250;8.312;2023-02-23T10:24:21;98549.47;;;14.61;68.11
27144;BME280;14672;50.250;8.312;2023-02-23T10:26:59;98553.19;;;14.67;68.33
27144;BME280;14672;50.250;8.312;2023-02-23T10:29:55;98559.50;;;14.71;68.02
27144;BME280;14672;50.250;8.312;2023-02-23T10:32:38;98555.75;;;14.79;67.82
27144;BME280;14672;50.250;8.312;2023-02-23T10:35:12;98551.28;;;14.93;68.64
27144;BME280;14672;50.250;8.312;2023-02-23T10:37:38;98550.66;;;15.38;68.13
27144;BME280;14672;50.250;8.312;2023-02-23T10:40:05;98549.88;;;15.53;67.28
27144;BME280;14672;50.250;8.312;2023-02-23T10:42:32;98549.56;;;15.50;66.95
27144;BME280;14672;50.250;8.312;2023-02-23T10:45:01;98550.75;;;15.44;65.78
27144;BME280;14672;50.250;8.312;2023-02-23T10:47:32;98554.59;;;15.41;65.43
27144;BME280;14672;50.250;8.312;2023-02-23T10:50:00;98556.16;;;15.42;65.11
27144;BME280;14672;50.250;8.312;2023-02-23T10:52:42;98556.28;;;15.33;65.09
27144;BME280;14672;50.250;8.312;2023-02-23T10:55:39;98558.00;;;15.25;65.08
27144;BME280;14672;50.250;8.312;2023-02-23T10:58:11;98560.09;;;15.24;65.04
27144;BME280;14672;50.250;8.312;2023-02-23T11:03:47;98562.19;;;15.09;64.79
27144;BME280;14672;50.250;8.312;2023-02-23T11:06:37;98570.19;;;15.05;65.48
27144;BME280;14672;50.250;8.312;2023-02-23T11:09:31;98558.47;;;15.03;65.86
27144;BME280;14672;50.250;8.312;2023-02-23T11:12:01;98560.59;;;14.88;66.38
27144;BME280;14672;50.250;8.312;2023-02-23T11:14:29;98564.44;;;14.85;65.22
27144;BME280;14672;50.250;8.312;2023-02-23T11:16:58;98567.81;;;14.69;66.36
27144;BME280;14672;50.250;8.312;2023-02-23T11:19:37;98569.88;;;14.68;66.28
27144;BME280;14672;50.250;8.312;2023-02-23T11:22:04;98569.88;;;14.68;65.99
27144;BME280;14672;50.250;8.312;2023-02-23T11:24:39;98570.47;;;14.72;66.40
27144;BME280;14672;50.250;8.312;2023-02-23T11:27:23;98567.50;;;14.67;67.02
27144;BME280;14672;50.250;8.312;2023-02-23T11:29:53;98559.50;;;14.71;66.62
27144;BME280;14672;50.250;8.312;2023-02-23T11:32:31;98567.50;;;14.67;67.09
27144;BME280;14672;50.250;8.312;2023-02-23T11:37:46;98565.25;;;14.56;66.96
27144;BME280;14672;50.250;8.312;2023-02-23T11:40:31;98564.94;;;14.54;67.27
27144;BME280;14672;50.250;8.312;2023-02-23T11:43:14;98560.53;;;14.53;66.92
27144;BME280;14672;50.250;8.312;2023-02-23T11:45:50;98563.94;;;14.57;66.90
27144;BME280;14672;50.250;8.312;2023-02-23T11:50:51;98559.94;;;14.49;66.27
27144;BME280;14672;50.250;8.312;2023-02-23T11:53:32;98551.63;;;14.51;66.04
27144;BME280;14672;50.250;8.312;2023-02-23T11:56:02;98559.34;;;14.45;66.05
27144;BME280;14672;50.250;8.312;2023-02-23T12:01:07;98548.50;;;14.49;65.72
27144;BME280;14672;50.250;8.312;2023-02-23T12:03:42;98538.53;;;14.44;65.79
27144;BME280;14672;50.250;8.312;2023-02-23T12:06:10;98541.69;;;14.46;65.68
27144;BME280;14672;50.250;8.312;2023-02-23T12:08:44;98545.91;;;14.51;65.58
27144;BME280;14672;50.250;8.312;2023-02-23T12:11:18;98546.50;;;14.55;65.70
27144;BME280;14672;50.250;8.312;2023-02-23T12:14:37;98546.91;;;14.48;65.83
27144;BME280;14672;50.250;8.312;2023-02-23T12:17:15;98549.47;;;14.46;65.82
27144;BME280;14672;50.250;8.312;2023-02-23T12:19:59;98533.31;;;14.43;65.73
27144;BME280;14672;50.250;8.312;2023-02-23T12:22:42;98538.63;;;14.50;65.93
27144;BME280;14672;50.250;8.312;2023-02-23T12:25:27;98541.59;;;14.55;66.09
27144;BME280;14672;50.250;8.312;2023-02-23T12:28:03;98541.19;;;14.48;66.11
27144;BME280;14672;50.250;8.312;2023-02-23T12:31:44;98531.84;;;14.47;66.47
27144;BME280;14672;50.250;8.312;2023-02-23T12:34:30;98536.66;;;14.56;66.30
27144;BME280;14672;50.250;8.312;2023-02-23T12:40:27;98540.78;;;14.55;66.05
27144;BME280;14672;50.250;8.312;2023-02-23T12:43:25;98546.22;;;14.68;65.52
27144;BME280;14672;50.250;8.312;2023-02-23T12:46:17;98543.66;;;14.55;65.85
27144;BME280;14672;50.250;8.312;2023-02-23T12:49:09;98537.94;;;14.55;65.66
27144;BME280;14672;50.250;8.312;2023-02-23T12:52:30;98534.81;;;14.53;65.74
27144;BME280;14672;50.250;8.312;2023-02-23T12:54:36;98537.66;;;14.53;65.19
27144;BME280;14672;50.250;8.312;2023-02-23T13:09:19;98531.03;;;14.32;65.94
27144;BME280;14672;50.250;8.312;2023-02-23T13:15:14;98536.91;;;14.14;66.00
27144;BME280;14672;50.250;8.312;2023-02-23T13:18:20;98538.03;;;14.17;66.24
27144;BME280;14672;50.250;8.312;2023-02-23T13:29:36;98531.31;;;14.20;66.29
27144;BME280;14672;50.250;8.312;2023-02-23T13:32:18;98536.03;;;14.23;66.61
27144;BME280;14672;50.250;8.312;2023-02-23T13:37:49;98528.97;;;14.33;66.65
27144;BME280;14672;50.250;8.312;2023-02-23T13:51:27;98529.53;;;14.22;65.73
27144;BME280;14672;50.250;8.312;2023-02-23T13:54:04;98535.34;;;14.28;65.39
27144;BME280;14672;50.250;8.312;2023-02-23T13:56:42;98539.47;;;14.27;65.29
27144;BME280;14672;50.250;8.312;2023-02-23T13:59:16;98545.19;;;14.27;65.68
27144;BME280;14672;50.250;8.312;2023-02-23T14:01:47;98539.22;;;14.25;64.85
27144;BME280;14672;50.250;8.312;2023-02-23T14:04:25;98544.22;;;14.30;64.70
27144;BME280;14672;50.250;8.312;2023-02-23T14:09:37;98549.03;;;14.24;65.04
27144;BME280;14672;50.250;8.312;2023-02-23T14:15:28;98546.78;;;14.28;65.04
27144;BME280;14672;50.250;8.312;2023-02-23T14:17:57;98539.69;;;14.23;65.22
27144;BME280;14672;50.250;8.312;2023-02-23T14:24:15;98537.66;;;14.38;65.07
27144;BME280;14672;50.250;8.312;2023-02-23T14:32:45;98538.44;;;14.68;64.74
27144;BME280;14672;50.250;8.312;2023-02-23T14:38:04;98530.72;;;14.74;63.48
27144;BME280;14672;50.250;8.312;2023-02-23T14:40:40;98529.81;;;14.83;63.48
27144;BME280;14672;50.250;8.312;2023-02-23T14:46:01;98522.50;;;14.96;62.84
27144;BME280;14672;50.250;8.312;2023-02-23T14:48:32;98524.94;;;15.03;62.75
27144;BME280;14672;50.250;8.312;2023-02-23T14:51:21;98523.94;;;15.07;62.42
27144;BME280;14672;50.250;8.312;2023-02-23T14:53:49;98522.72;;;15.13;62.21
27144;BME280;14672;50.250;8.312;2023-02-23T14:56:22;98515.44;;;15.12;62.72
27144;BME280;14672;50.250;8.312;2023-02-23T14:58:54;98520.38;;;15.12;62.34
27144;BME280;14672;50.250;8.312;2023-02-23T15:01:36;98523.09;;;15.21;61.60
27144;BME280;14672;50.250;8.312;2023-02-23T15:04:15;98527.47;;;15.16;61.55
27144;BME280;14672;50.250;8.312;2023-02-23T15:06:43;98525.66;;;15.19;61.45
27144;BME280;14672;50.250;8.312;2023-02-23T15:09:31;98525.50;;;15.08;61.41
27144;BME280;14672;50.250;8.312;2023-02-23T15:12:02;98531.31;;;15.13;61.31
27144;BME280;14672;50.250;8.312;2023-02-23T15:14:36;98531.13;;;15.17;61.58
27144;BME280;14672;50.250;8.312;2023-02-23T15:17:03;98534.94;;;15.14;61.82
27144;BME280;14672;50.250;8.312;2023-02-23T15:19:35;98530.53;;;15.13;61.74
27144;BME280;14672;50.250;8.312;2023-02-23T15:22:03;98536.97;;;15.08;61.62
27144;BME280;14672;50.250;8.312;2023-02-23T15:24:40;98537.97;;;15.04;61.19
27144;BME280;14672;50.250;8.312;2023-02-23T15:27:22;98528.28;;;15.02;61.33
27144;BME280;14672;50.250;8.312;2023-02-23T15:29:52;98528.41;;;14.93;61.80
27144;BME280;14672;50.250;8.312;2023-02-23T15:32:23;98527.53;;;14.87;61.57
27144;BME280;14672;50.250;8.312;2023-02-23T15:34:53;98536.59;;;14.85;61.46
27144;BME280;14672;50.250;8.312;2023-02-23T15:37:45;98533.47;;;14.83;61.54
27144;BME280;14672;50.250;8.312;2023-02-23T15:40:18;98526.38;;;14.79;61.16
27144;BME280;14672;50.250;8.312;2023-02-23T15:42:53;98531.09;;;14.82;61.30